Terminal Aerodrome Forecast
Issued by NWS

Home | Current Version | Previous Version | Text Only | Print | Product List | Glossary On
Versions: 1 2 3 4 5 6 7 8 9 10 11 12 13 14 15 16 17 18 19
000
FTUS46 KOTX 251721
TAFSFF
TAF
KSFF 251721Z 2518/2618 22007KT P6SM SCT012 BKN040 OVC060
      TEMPO 2518/2520 BKN012 BKN040 OVC060
     FM252000 22008KT P6SM -SHRA BKN040 BKN060
     FM260100 21006KT P6SM SCT045 BKN120 OVC200
     FM260800 21004KT P6SM -RA SCT025 OVC040=

USA.gov is the U.S. government's official web portal to all federal, state and local government web resources and services.